Time;durP1;ratioP1;P1;durP2;ratioP2;P2;SDS_P1;SDS_P2;PMS_P1;PMS_P2;Temp;Humidity;BMP_temperature;BMP_pressure;BME280_temperature;BME280_humidity;BME280_pressure;Samples;Min_cycle;Max_cycle;Signal;HPM_P1;HPM_P2
2023/12/10 00:00:35;;;;;;;8.13;3.78;;;;;;;-0.36;76.23;101289.13;5058190;28;20052;-71
2023/12/10 00:03:02;;;;;;;6.30;3.63;;;;;;;-0.35;76.36;101293.47;5059670;28;20550;-71
2023/12/10 00:05:29;;;;;;;9.48;4.10;;;;;;;-0.34;76.20;101294.34;5058164;28;20548;-71
2023/12/10 00:07:57;;;;;;;9.13;4.55;;;;;;;-0.34;76.44;101292.63;5057990;28;20548;-71
2023/12/10 00:10:24;;;;;;;8.70;4.50;;;;;;;-0.34;75.95;101287.50;5056380;28;20045;-71
2023/12/10 00:12:51;;;;;;;10.15;4.18;;;;;;;-0.35;76.44;101290.91;5061851;28;20484;-71
2023/12/10 00:15:18;;;;;;;7.82;3.58;;;;;;;-0.35;76.81;101284.84;5063449;28;20056;-71
2023/12/10 00:17:45;;;;;;;10.40;4.05;;;;;;;-0.33;76.02;101290.94;5061296;28;20110;-71
2023/12/10 00:20:12;;;;;;;15.15;4.82;;;;;;;-0.35;75.98;101288.31;5063803;28;20487;-71
2023/12/10 00:22:39;;;;;;;13.07;4.78;;;;;;;-0.34;76.67;101291.75;5065947;28;20141;-71
2023/12/10 00:25:09;;;;;;;11.10;4.95;;;;;;;-0.36;76.04;101272.84;5066737;28;20072;-71
2023/12/10 00:27:36;;;;;;;7.10;3.72;;;;;;;-0.33;76.51;101283.22;5062160;28;20402;-71
2023/12/10 00:30:04;;;;;;;10.23;4.15;;;;;;;-0.33;76.03;101278.94;5064232;28;20491;-71
2023/12/10 00:32:31;;;;;;;10.70;4.68;;;;;;;-0.33;76.77;101276.38;5062439;28;21675;-72
2023/12/10 00:34:58;;;;;;;11.55;4.13;;;;;;;-0.34;76.05;101274.63;5062852;28;20087;-71
2023/12/10 00:37:25;;;;;;;8.55;4.40;;;;;;;-0.31;75.96;101283.28;5063040;28;20080;-71
2023/12/10 00:39:52;;;;;;;10.13;4.60;;;;;;;-0.30;76.12;101285.00;5065147;28;20576;-71
2023/12/10 00:42:20;;;;;;;8.90;4.68;;;;;;;-0.29;76.42;101286.75;5057288;28;20084;-70
2023/12/10 00:44:47;;;;;;;10.52;4.25;;;;;;;-0.29;76.29;101287.59;5062304;28;20091;-71
2023/12/10 00:47:14;;;;;;;10.15;4.57;;;;;;;-0.28;76.34;101285.94;5061340;28;20106;-71
2023/12/10 00:49:40;;;;;;;10.10;4.05;;;;;;;-0.26;75.96;101286.81;5063463;28;20133;-73
2023/12/10 00:52:07;;;;;;;11.90;4.38;;;;;;;-0.26;76.54;101285.16;5059330;28;20642;-74
2023/12/10 00:54:34;;;;;;;10.85;5.03;;;;;;;-0.24;76.69;101287.75;5056275;28;20047;-73
2023/12/10 00:57:01;;;;;;;12.75;4.35;;;;;;;-0.23;76.15;101281.78;5063068;28;20068;-73
2023/12/10 00:59:29;;;;;;;12.52;5.97;;;;;;;-0.23;76.27;101282.69;5062354;28;20070;-73
2023/12/10 01:01:56;;;;;;;15.15;5.38;;;;;;;-0.23;75.85;101292.06;5061682;28;20040;-73
2023/12/10 01:04:23;;;;;;;11.93;5.55;;;;;;;-0.28;76.41;101275.66;5059056;28;20114;-73
2023/12/10 01:06:51;;;;;;;19.17;5.97;;;;;;;-0.22;75.79;101278.41;5057835;28;20122;-73
2023/12/10 01:09:17;;;;;;;12.73;5.85;;;;;;;-0.22;76.46;101281.84;5063311;28;20060;-73
2023/12/10 01:11:44;;;;;;;15.95;7.03;;;;;;;-0.22;76.04;101278.41;5064771;28;20076;-73
2023/12/10 01:14:11;;;;;;;13.60;6.85;;;;;;;-0.27;76.29;101272.25;5061592;28;20054;-73
2023/12/10 01:16:40;;;;;;;15.27;6.30;;;;;;;-0.23;76.26;101281.78;5065665;28;20423;-73
2023/12/10 01:19:07;;;;;;;15.10;7.38;;;;;;;-0.24;76.49;101280.91;5059560;28;20052;-73
2023/12/10 01:21:34;;;;;;;17.50;6.97;;;;;;;-0.24;76.49;101274.91;5049579;28;21585;-73
2023/12/10 01:24:02;;;;;;;17.88;8.20;;;;;;;-0.25;75.70;101273.16;5059632;28;20091;-73
2023/12/10 01:26:29;;;;;;;18.88;8.88;;;;;;;-0.26;75.98;101280.00;5058962;28;20100;-73
2023/12/10 01:28:56;;;;;;;18.50;7.22;;;;;;;-0.27;76.53;101272.25;5057455;28;20566;-73
2023/12/10 01:31:23;;;;;;;16.58;7.68;;;;;;;-0.26;76.30;101266.25;5049184;28;20094;-73
2023/12/10 01:33:52;;;;;;;16.58;7.05;;;;;;;-0.27;76.26;101267.97;5063145;28;20647;-73
2023/12/10 01:36:23;;;;;;;14.00;7.05;;;;;;;-0.27;76.27;101262.81;5061317;28;20040;-74
2023/12/10 01:38:50;;;;;;;16.98;7.40;;;;;;;-0.27;76.55;101264.53;5056627;28;20128;-76
2023/12/10 01:41:18;;;;;;;18.27;8.05;;;;;;;-0.27;76.11;101261.94;5059601;28;20097;-72
2023/12/10 01:43:45;;;;;;;13.95;6.15;;;;;;;-0.27;75.78;101254.25;5058469;28;20081;-73
2023/12/10 01:46:13;;;;;;;15.73;7.25;;;;;;;-0.28;75.97;101265.38;5061813;28;20129;-73
2023/12/10 01:48:41;;;;;;;13.40;7.43;;;;;;;-0.29;75.92;101261.91;5054949;28;20049;-73
2023/12/10 01:51:10;;;;;;;20.77;9.05;;;;;;;-0.29;76.23;101271.31;5060572;28;20067;-73
2023/12/10 01:53:38;;;;;;;16.42;8.20;;;;;;;-0.30;75.76;101259.28;5058857;28;21217;-73
2023/12/10 01:56:08;;;;;;;18.27;8.50;;;;;;;-0.35;76.00;101256.56;5059377;28;20045;-72
2023/12/10 01:58:36;;;;;;;14.25;8.00;;;;;;;-0.33;75.96;101263.50;5054952;28;20049;-74
2023/12/10 02:01:05;;;;;;;16.13;8.30;;;;;;;-0.40;75.83;101251.31;5059922;28;20052;-73
2023/12/10 02:03:33;;;;;;;18.85;9.00;;;;;;;-0.35;76.03;101254.00;5057486;28;20048;-73
2023/12/10 02:06:00;;;;;;;19.05;7.93;;;;;;;-0.37;75.89;101253.13;5064595;28;20044;-74
2023/12/10 02:08:28;;;;;;;17.50;7.68;;;;;;;-0.39;76.06;101250.47;5058513;28;20106;-74
2023/12/10 02:10:55;;;;;;;22.15;9.02;;;;;;;-0.40;75.87;101253.88;5060256;28;20080;-73
2023/12/10 02:13:24;;;;;;;17.15;7.75;;;;;;;-0.41;75.93;101252.13;5060191;28;20044;-73
2023/12/10 02:15:51;;;;;;;25.67;10.00;;;;;;;-0.42;75.61;101242.69;5053689;28;20045;-73
2023/12/10 02:18:20;;;;;;;19.30;9.30;;;;;;;-0.44;76.18;101251.16;5056640;28;20517;-73
2023/12/10 02:20:47;;;;;;;16.55;6.97;;;;;;;-0.46;75.91;101253.72;5059491;28;20470;-73
2023/12/10 02:23:23;;;;;;;24.05;9.23;;;;;;;-0.47;76.38;101244.22;5059179;28;20102;-73
2023/12/10 02:25:52;;;;;;;19.48;9.20;;;;;;;-0.50;75.78;101241.56;5061176;28;20094;-73
2023/12/10 02:28:22;;;;;;;18.33;9.68;;;;;;;-0.50;76.37;101230.44;5058822;28;20044;-74
2023/12/10 02:30:49;;;;;;;18.90;8.60;;;;;;;-0.52;75.87;101232.94;5055367;28;20045;-74
2023/12/10 02:33:16;;;;;;;19.73;9.68;;;;;;;-0.52;76.24;101229.50;5049315;28;20056;-74
2023/12/10 02:35:43;;;;;;;18.90;8.82;;;;;;;-0.53;75.58;101230.34;5054953;28;20095;-73
2023/12/10 02:38:10;;;;;;;17.35;10.07;;;;;;;-0.54;76.32;101229.47;5061128;28;20720;-73
2023/12/10 02:40:37;;;;;;;23.33;9.75;;;;;;;-0.54;75.90;101232.03;5062206;28;20498;-73
2023/12/10 02:43:05;;;;;;;18.20;9.65;;;;;;;-0.53;75.96;101231.22;5056755;28;20722;-73
2023/12/10 02:45:32;;;;;;;25.80;9.23;;;;;;;-0.52;75.76;101239.78;5053424;28;20427;-73
2023/12/10 02:47:59;;;;;;;19.70;9.25;;;;;;;-0.52;75.92;101232.94;5058958;28;20072;-73
2023/12/10 02:50:26;;;;;;;19.40;9.23;;;;;;;-0.54;76.02;101234.63;5055962;28;20462;-73
2023/12/10 02:52:53;;;;;;;17.95;8.18;;;;;;;-0.53;76.26;101238.06;5056735;28;20065;-75
2023/12/10 02:55:20;;;;;;;18.38;8.70;;;;;;;-0.55;75.98;101228.56;5042802;28;20045;-75
2023/12/10 02:57:47;;;;;;;15.70;8.68;;;;;;;-0.54;75.82;101229.47;5047118;28;20064;-74
2023/12/10 03:00:16;;;;;;;18.02;9.00;;;;;;;-0.54;76.03;101232.03;5057021;28;20052;-69
2023/12/10 03:02:43;;;;;;;21.40;9.52;;;;;;;-0.56;76.58;101226.84;5057812;28;20044;-69
2023/12/10 03:05:10;;;;;;;18.13;9.25;;;;;;;-0.57;76.50;101224.25;5054599;28;20064;-69
2023/12/10 03:07:37;;;;;;;18.38;8.55;;;;;;;-0.59;76.37;101231.03;5059669;28;20084;-69
2023/12/10 03:10:05;;;;;;;18.92;8.82;;;;;;;-0.59;76.04;101223.31;5053536;28;20519;-75
2023/12/10 03:12:31;;;;;;;20.95;10.00;;;;;;;-0.61;76.16;101230.97;5058497;28;20084;-75
2023/12/10 03:14:59;;;;;;;18.48;10.35;;;;;;;-0.61;76.50;101232.66;5058410;28;20130;-74
2023/12/10 03:17:27;;;;;;;17.90;8.38;;;;;;;-0.62;75.89;101230.94;5057748;28;20098;-74
2023/12/10 03:19:54;;;;;;;20.23;9.30;;;;;;;-0.62;76.69;101236.06;5061391;28;20095;-76
2023/12/10 03:22:21;;;;;;;18.30;8.90;;;;;;;-0.66;76.70;101229.09;5059566;28;20048;-75
2023/12/10 03:24:48;;;;;;;17.25;9.07;;;;;;;-0.63;76.59;101242.91;5057882;28;20554;-74
2023/12/10 03:27:15;;;;;;;20.02;8.95;;;;;;;-0.61;76.58;101248.09;5057720;28;20702;-76
2023/12/10 03:29:42;;;;;;;21.23;10.05;;;;;;;-0.62;76.74;101236.06;5059198;28;20133;-76
2023/12/10 03:32:09;;;;;;;16.90;8.93;;;;;;;-0.62;75.95;101242.09;5058252;28;20045;-75
2023/12/10 03:34:37;;;;;;;16.48;8.70;;;;;;;-0.60;76.38;101247.28;5054550;28;20807;-75
2023/12/10 03:37:04;;;;;;;17.27;7.78;;;;;;;-0.60;76.82;101250.72;5058537;28;20080;-76
2023/12/10 03:39:31;;;;;;;19.95;7.93;;;;;;;-0.64;76.43;101242.84;5062272;28;20070;-74
2023/12/10 03:41:58;;;;;;;17.98;8.13;;;;;;;-0.59;76.07;101242.19;5055417;28;20881;-74
2023/12/10 03:44:25;;;;;;;18.23;8.52;;;;;;;-0.57;76.41;101255.09;5058643;28;20072;-76
2023/12/10 03:46:52;;;;;;;16.27;7.78;;;;;;;-0.57;76.59;101240.53;5061728;28;20114;-76
2023/12/10 03:49:19;;;;;;;16.98;8.38;;;;;;;-0.55;76.53;101245.69;5059843;28;20040;-75
2023/12/10 03:51:47;;;;;;;19.42;9.75;;;;;;;-0.56;76.83;101242.25;5060003;28;20072;-75
2023/12/10 03:54:14;;;;;;;18.15;9.30;;;;;;;-0.51;76.94;101246.69;5053787;28;20503;-74
2023/12/10 03:56:41;;;;;;;17.38;8.57;;;;;;;-0.50;76.15;101246.72;5061257;28;20071;-75
2023/12/10 03:59:08;;;;;;;17.52;7.65;;;;;;;-0.49;75.82;101248.44;5059179;28;20194;-75
2023/12/10 04:01:35;;;;;;;15.90;8.45;;;;;;;-0.51;76.00;101247.56;5057559;28;20080;-74
2023/12/10 04:04:02;;;;;;;17.52;7.18;;;;;;;-0.51;76.10;101257.84;5060241;28;20113;-75
2023/12/10 04:06:29;;;;;;;20.20;9.05;;;;;;;-0.52;75.94;101252.63;5054330;28;20136;-75
2023/12/10 04:08:57;;;;;;;14.85;8.05;;;;;;;-0.53;76.55;101262.06;5057917;28;20487;-74
2023/12/10 04:11:24;;;;;;;14.07;7.28;;;;;;;-0.54;76.26;101268.03;5057581;28;20552;-72
2023/12/10 04:13:51;;;;;;;15.35;7.30;;;;;;;-0.54;76.23;101265.47;5059549;28;20076;-73
2023/12/10 04:16:26;;;;;;;15.25;7.82;;;;;;;-0.53;76.08;101263.75;5055120;28;20072;-73
2023/12/10 04:18:52;;;;;;;18.20;8.75;;;;;;;-0.54;76.27;101268.03;5060705;28;20133;-72
2023/12/10 04:21:21;;;;;;;18.23;8.48;;;;;;;-0.55;76.52;101269.69;5059549;28;20508;-71
2023/12/10 04:23:48;;;;;;;22.38;9.27;;;;;;;-0.54;75.85;101265.47;5059996;28;20517;-71
2023/12/10 04:26:17;;;;;;;16.05;8.00;;;;;;;-0.54;75.88;101265.47;5059997;28;20110;-71
2023/12/10 04:28:44;;;;;;;15.75;7.32;;;;;;;-0.54;75.92;101270.59;5058911;28;20110;-71
2023/12/10 04:31:11;;;;;;;21.52;8.98;;;;;;;-0.55;75.86;101264.56;5056346;28;20041;-70
2023/12/10 04:33:38;;;;;;;18.23;9.43;;;;;;;-0.55;76.77;101273.97;5053630;28;20432;-71
2023/12/10 04:36:06;;;;;;;16.58;8.20;;;;;;;-0.55;76.36;101268.84;5059820;28;20049;-71
2023/12/10 04:38:33;;;;;;;25.08;9.65;;;;;;;-0.56;76.15;101267.97;5058554;28;20102;-71
2023/12/10 04:41:00;;;;;;;22.95;8.88;;;;;;;-0.56;76.24;101275.69;5059166;28;20470;-70
2023/12/10 04:43:28;;;;;;;23.27;9.32;;;;;;;-0.57;76.16;101285.94;5057466;28;20048;-71
2023/12/10 04:45:55;;;;;;;17.33;8.05;;;;;;;-0.56;76.08;101282.53;5057615;28;20159;-70
2023/12/10 04:48:23;;;;;;;19.17;8.77;;;;;;;-0.55;76.59;101290.25;5056961;28;20037;-70
2023/12/10 04:50:49;;;;;;;19.48;9.25;;;;;;;-0.54;76.26;101286.03;5055750;28;20118;-71
2023/12/10 04:53:17;;;;;;;19.77;9.18;;;;;;;-0.52;76.85;101283.47;5055896;28;20076;-70
2023/12/10 04:55:44;;;;;;;22.00;10.07;;;;;;;-0.51;76.76;101283.53;5062729;28;20101;-70
2023/12/10 04:58:11;;;;;;;22.40;9.35;;;;;;;-0.48;77.01;101291.34;5061593;28;20077;-71
2023/12/10 05:00:40;;;;;;;23.15;10.02;;;;;;;-0.48;76.72;101282.75;5060742;28;20146;-70
2023/12/10 05:03:07;;;;;;;18.73;8.77;;;;;;;-0.47;76.39;101280.22;5061417;28;20502;-71
2023/12/10 05:05:35;;;;;;;23.23;10.63;;;;;;;-0.48;76.36;101280.19;5060616;28;20052;-71
2023/12/10 05:08:02;;;;;;;18.25;8.23;;;;;;;-0.47;76.92;101282.78;5057674;28;20120;-70
2023/12/10 05:10:29;;;;;;;20.27;8.95;;;;;;;-0.47;76.63;101276.78;5059907;28;20049;-70
2023/12/10 05:12:56;;;;;;;24.40;10.60;;;;;;;-0.45;76.49;101288.00;5060900;28;20041;-70
2023/12/10 05:15:23;;;;;;;26.23;10.55;;;;;;;-0.45;76.75;101291.44;5061584;28;20670;-71
2023/12/10 05:17:52;;;;;;;24.70;11.15;;;;;;;-0.46;76.89;101291.38;5058473;28;20548;-70
2023/12/10 05:20:19;;;;;;;21.60;9.80;;;;;;;-0.45;76.35;101291.44;5062553;28;20072;-71
2023/12/10 05:22:46;;;;;;;20.65;8.55;;;;;;;-0.45;76.58;101295.72;5060617;28;20052;-71
2023/12/10 05:25:13;;;;;;;24.02;10.60;;;;;;;-0.47;76.77;101293.06;5063244;28;20055;-71
2023/12/10 05:27:40;;;;;;;24.20;9.93;;;;;;;-0.47;76.61;101292.22;5058964;28;20414;-71
2023/12/10 05:30:08;;;;;;;25.85;9.88;;;;;;;-0.45;76.96;101293.13;5060999;28;20545;-76
2023/12/10 05:32:35;;;;;;;25.33;10.27;;;;;;;-0.44;76.53;101293.16;5062284;28;20615;-76
2023/12/10 05:35:04;;;;;;;21.15;10.25;;;;;;;-0.46;76.25;101289.69;5065977;28;20418;-77
2023/12/10 05:37:31;;;;;;;21.80;8.52;;;;;;;-0.44;76.82;101288.03;5060645;28;20037;-76
2023/12/10 05:39:58;;;;;;;21.45;9.18;;;;;;;-0.44;76.88;101288.03;5065729;28;20049;-77
2023/12/10 05:42:25;;;;;;;22.17;8.95;;;;;;;-0.44;76.24;101288.03;5063650;28;20084;-76
2023/12/10 05:44:53;;;;;;;24.35;11.95;;;;;;;-0.44;76.26;101282.88;5071443;28;20098;-77
2023/12/10 05:47:20;;;;;;;22.98;10.30;;;;;;;-0.44;76.72;101287.16;5061992;28;20491;-76
2023/12/10 05:49:47;;;;;;;23.88;10.35;;;;;;;-0.44;76.77;101292.31;5067053;28;20048;-76
2023/12/10 05:52:15;;;;;;;20.88;9.63;;;;;;;-0.43;76.27;101296.59;5066677;28;20082;-76
2023/12/10 05:54:42;;;;;;;24.08;10.93;;;;;;;-0.44;76.85;101298.31;5066054;28;20041;-76
2023/12/10 05:57:09;;;;;;;24.73;11.55;;;;;;;-0.43;76.73;101289.78;5058613;28;20049;-76
2023/12/10 05:59:37;;;;;;;21.17;9.50;;;;;;;-0.42;76.43;101296.66;5059489;28;20045;-76
2023/12/10 06:02:05;;;;;;;23.83;9.85;;;;;;;-0.41;76.63;101298.41;5063118;28;20106;-76
2023/12/10 06:04:32;;;;;;;23.52;10.93;;;;;;;-0.43;76.85;101292.38;5062754;28;20045;-76
2023/12/10 06:06:59;;;;;;;23.77;9.95;;;;;;;-0.42;76.38;101295.78;5068174;28;20045;-77
2023/12/10 06:09:27;;;;;;;22.33;10.07;;;;;;;-0.44;76.81;101292.31;5063948;28;20124;-76
2023/12/10 06:11:54;;;;;;;25.15;10.75;;;;;;;-0.42;76.62;101294.09;5061916;28;20504;-76
2023/12/10 06:14:21;;;;;;;22.08;9.10;;;;;;;-0.39;77.10;101301.03;5060076;28;20095;-76
2023/12/10 06:16:48;;;;;;;26.15;11.50;;;;;;;-0.39;76.90;101314.75;5062922;28;20076;-76
2023/12/10 06:19:15;;;;;;;24.75;9.60;;;;;;;-0.40;76.97;101305.31;5062480;28;20800;-76
2023/12/10 06:21:42;;;;;;;28.00;12.70;;;;;;;-0.38;76.46;101316.50;5062831;28;20561;-76
2023/12/10 06:24:09;;;;;;;24.50;12.02;;;;;;;-0.38;76.72;101303.63;5063127;28;20107;-76
2023/12/10 06:26:37;;;;;;;22.73;9.63;;;;;;;-0.38;76.51;101310.47;5057131;28;20049;-76
2023/12/10 06:29:04;;;;;;;27.95;12.55;;;;;;;-0.37;76.51;101310.53;5040852;28;20084;-77
2023/12/10 06:31:31;;;;;;;25.35;11.27;;;;;;;-0.36;76.97;101308.84;5055158;28;20052;-71
2023/12/10 06:33:58;;;;;;;25.15;11.65;;;;;;;-0.37;76.77;101310.53;5055641;28;20448;-71
2023/12/10 06:36:25;;;;;;;26.08;11.25;;;;;;;-0.36;77.06;101307.13;5053896;28;20527;-71
2023/12/10 06:38:52;;;;;;;26.85;11.05;;;;;;;-0.36;76.45;101307.13;5058707;28;20460;-71
2023/12/10 06:41:19;;;;;;;25.55;9.82;;;;;;;-0.35;76.98;101298.63;5062999;28;20135;-71
2023/12/10 06:43:48;;;;;;;22.33;11.25;;;;;;;-0.34;76.90;101286.63;5056615;28;20102;-71
2023/12/10 06:46:17;;;;;;;28.15;11.55;;;;;;;-0.34;76.91;101300.34;5061518;28;20097;-71
2023/12/10 06:48:44;;;;;;;25.65;11.60;;;;;;;-0.34;76.71;101300.34;5059983;28;20139;-71
2023/12/10 06:51:11;;;;;;;30.83;12.23;;;;;;;-0.35;76.94;101308.91;5056007;28;20045;-71
2023/12/10 06:53:39;;;;;;;25.75;11.07;;;;;;;-0.34;77.05;101300.34;5058184;28;20392;-71
2023/12/10 06:56:08;;;;;;;33.50;13.43;;;;;;;-0.38;77.01;101301.06;5058310;28;20045;-71
2023/12/10 06:58:35;;;;;;;32.22;12.77;;;;;;;-0.33;77.21;101307.22;5053898;28;20048;-71
2023/12/10 07:01:03;;;;;;;27.55;10.52;;;;;;;-0.33;76.69;101312.38;5058922;28;20049;-73
2023/12/10 07:03:31;;;;;;;25.90;10.75;;;;;;;-0.32;76.63;101313.22;5057545;28;20057;-70
2023/12/10 07:05:58;;;;;;;23.48;10.15;;;;;;;-0.30;77.22;101314.16;5058436;28;20126;-70
2023/12/10 07:08:26;;;;;;;25.83;12.02;;;;;;;-0.29;76.67;101312.44;5057822;28;20049;-70
2023/12/10 07:10:53;;;;;;;23.17;9.18;;;;;;;-0.30;77.24;101311.59;5059860;28;20045;-71
2023/12/10 07:13:20;;;;;;;30.25;12.38;;;;;;;-0.28;76.92;101309.06;5062155;28;20084;-71
2023/12/10 07:15:47;;;;;;;22.50;10.85;;;;;;;-0.27;76.93;101321.09;5061495;28;20080;-70
2023/12/10 07:18:15;;;;;;;24.60;11.02;;;;;;;-0.28;76.96;101309.06;5058198;28;20106;-71
2023/12/10 07:20:42;;;;;;;23.60;9.90;;;;;;;-0.27;76.59;101306.53;5058558;28;21061;-72
2023/12/10 07:23:09;;;;;;;27.90;11.90;;;;;;;-0.28;77.07;101309.94;5062770;28;20052;-70
2023/12/10 07:25:36;;;;;;;25.58;11.40;;;;;;;-0.28;77.38;101307.38;5059621;28;20045;-71
2023/12/10 07:28:04;;;;;;;28.55;9.13;;;;;;;-0.29;77.27;101305.59;5062284;28;20121;-72
2023/12/10 07:30:31;;;;;;;31.17;11.63;;;;;;;-0.27;76.83;101308.25;5053790;28;20041;-71
2023/12/10 07:32:57;;;;;;;29.48;12.20;;;;;;;-0.27;77.19;101310.81;5061258;28;20114;-71
2023/12/10 07:35:26;;;;;;;24.55;9.98;;;;;;;-0.29;77.32;101307.31;5061564;28;20071;-71
2023/12/10 07:37:53;;;;;;;25.08;11.13;;;;;;;-0.27;76.67;101313.38;5063714;28;20742;-71
2023/12/10 07:40:20;;;;;;;23.50;10.25;;;;;;;-0.27;77.11;101310.81;5057005;28;20072;-76
2023/12/10 07:42:47;;;;;;;27.10;11.23;;;;;;;-0.28;76.82;101311.66;5057030;28;20044;-76
2023/12/10 07:45:15;;;;;;;26.67;10.70;;;;;;;-0.29;76.59;101308.19;5057473;28;20487;-77
2023/12/10 07:47:42;;;;;;;27.48;10.90;;;;;;;-0.28;76.89;101297.09;5059136;28;20076;-76
2023/12/10 07:50:09;;;;;;;28.58;11.13;;;;;;;-0.27;77.07;101306.53;5059821;28;20044;-72
2023/12/10 07:52:38;;;;;;;27.75;10.57;;;;;;;-0.27;76.77;101297.97;5056929;28;20193;-76
2023/12/10 07:55:06;;;;;;;25.15;10.88;;;;;;;-0.27;77.33;101293.69;5060701;28;20640;-74
2023/12/10 07:57:34;;;;;;;23.40;9.35;;;;;;;-0.28;76.65;101294.50;5059715;28;20778;-75
2023/12/10 08:00:01;;;;;;;27.48;10.38;;;;;;;-0.27;77.55;101295.38;5058521;28;20102;-75
2023/12/10 08:02:28;;;;;;;29.50;9.82;;;;;;;-0.27;76.81;101292.81;5038933;28;20517;-76
2023/12/10 08:05:09;;;;;;;34.63;13.45;;;;;;;-0.37;77.31;101279.69;5060375;28;20600;-75
2023/12/10 08:07:38;;;;;;;26.55;11.70;;;;;;;-0.30;77.33;101285.00;5056343;28;20514;-75
2023/12/10 08:10:06;;;;;;;28.80;10.20;;;;;;;-0.29;77.37;101287.59;5058931;28;20125;-75
2023/12/10 08:12:34;;;;;;;26.15;12.00;;;;;;;-0.29;77.04;101292.75;5058795;28;20041;-74
2023/12/10 08:15:01;;;;;;;32.80;13.35;;;;;;;-0.28;77.65;101288.50;5056694;28;20055;-74
2023/12/10 08:17:28;;;;;;;31.55;13.00;;;;;;;-0.31;76.99;101281.56;5060396;28;20699;-74
2023/12/10 08:19:55;;;;;;;34.03;12.20;;;;;;;-0.28;77.27;101283.38;5057971;28;20514;-74
2023/12/10 08:22:22;;;;;;;33.40;12.55;;;;;;;-0.29;77.71;101289.31;5058257;28;20044;-74
2023/12/10 08:24:51;;;;;;;30.77;13.45;;;;;;;-0.28;77.92;101288.50;5057150;28;21053;-74
2023/12/10 08:27:18;;;;;;;31.45;12.15;;;;;;;-0.31;77.59;101283.28;5056347;28;20127;-73
2023/12/10 08:29:45;;;;;;;32.08;12.52;;;;;;;-0.28;77.81;101288.50;5058534;28;20044;-72
2023/12/10 08:32:12;;;;;;;25.98;11.45;;;;;;;-0.29;77.47;101281.59;5056446;28;20083;-71
2023/12/10 08:34:39;;;;;;;31.95;11.60;;;;;;;-0.28;77.76;101291.06;5063023;28;20048;-72
2023/12/10 08:37:07;;;;;;;27.13;11.52;;;;;;;-0.29;77.43;101294.47;5061310;28;20834;-71
2023/12/10 08:39:34;;;;;;;25.25;10.57;;;;;;;-0.29;77.72;101294.47;5024940;28;20052;-71
2023/12/10 08:42:03;;;;;;;30.98;11.10;;;;;;;-0.29;77.92;101291.88;5060809;28;20044;-72
2023/12/10 08:44:30;;;;;;;30.83;11.27;;;;;;;-0.25;77.52;101293.75;5066079;28;20045;-72
2023/12/10 08:47:00;;;;;;;25.73;10.90;;;;;;;-0.26;77.26;101287.72;5056606;28;20051;-73
2023/12/10 08:49:27;;;;;;;33.17;11.38;;;;;;;-0.23;77.32;101286.91;5062127;28;20110;-70
2023/12/10 08:52:00;;;;;;;33.38;11.18;;;;;;;-0.22;77.30;101288.69;5058736;28;21906;-70
2023/12/10 08:54:27;;;;;;;27.13;10.25;;;;;;;-0.23;77.89;101287.81;5063608;28;20490;-70
2023/12/10 08:56:54;;;;;;;23.20;8.18;;;;;;;-0.20;77.64;101292.19;5057449;28;20076;-69
2023/12/10 08:59:23;;;;;;;26.15;9.57;;;;;;;-0.21;77.95;101298.13;5060377;28;20141;-76
2023/12/10 09:01:50;;;;;;;25.52;9.68;;;;;;;-0.21;77.42;101290.41;5061219;28;20126;-76
2023/12/10 09:04:17;;;;;;;22.67;10.95;;;;;;;-0.20;77.87;101295.63;5063633;28;20522;-76
2023/12/10 09:06:44;;;;;;;25.48;9.10;;;;;;;-0.18;77.72;101293.06;5062361;28;20041;-76
2023/12/10 09:09:11;;;;;;;28.20;11.25;;;;;;;-0.18;77.40;101299.09;5068004;28;20049;-75
2023/12/10 09:11:38;;;;;;;33.92;12.43;;;;;;;-0.16;77.28;101302.59;5059706;28;20041;-75
2023/12/10 09:14:07;;;;;;;26.88;11.93;;;;;;;-0.15;77.52;101301.78;5061350;28;20032;-76
2023/12/10 09:16:35;;;;;;;31.08;11.20;;;;;;;-0.14;77.88;101298.38;5060103;28;20388;-76
2023/12/10 09:19:02;;;;;;;28.67;10.45;;;;;;;-0.13;77.22;101300.09;5060719;28;20090;-78
2023/12/10 09:21:29;;;;;;;23.48;10.15;;;;;;;-0.12;77.83;101304.44;5066616;28;20068;-76
2023/12/10 09:23:57;;;;;;;20.40;9.05;;;;;;;-0.12;77.56;101312.16;5059867;28;20696;-75
2023/12/10 09:26:25;;;;;;;26.35;10.20;;;;;;;-0.11;77.93;101308.75;5061480;28;20040;-74
2023/12/10 09:28:52;;;;;;;26.63;10.10;;;;;;;-0.11;77.49;101303.59;5063303;28;20051;-75
2023/12/10 09:31:19;;;;;;;28.10;10.50;;;;;;;-0.08;77.82;101302.81;5061831;28;20049;-75
2023/12/10 09:33:49;;;;;;;26.33;10.75;;;;;;;-0.05;77.77;101302.03;5061949;28;20174;-76
2023/12/10 09:36:17;;;;;;;19.88;8.93;;;;;;;-0.05;77.30;101302.91;5062878;28;20129;-76
2023/12/10 09:38:44;;;;;;;27.23;10.57;;;;;;;-0.04;77.35;101307.22;5067466;28;20044;-75
2023/12/10 09:41:11;;;;;;;26.15;9.63;;;;;;;-0.03;77.28;101311.56;5062529;28;20060;-76
2023/12/10 09:43:38;;;;;;;17.83;7.55;;;;;;;-0.03;77.53;101306.41;5063991;28;20094;-75
2023/12/10 09:46:08;;;;;;;19.10;7.88;;;;;;;-0.01;77.14;101303.84;5061259;28;20518;-76
2023/12/10 09:48:35;;;;;;;23.52;9.30;;;;;;;-0.03;77.24;101301.25;5063319;28;20040;-75
2023/12/10 09:51:04;;;;;;;22.33;8.60;;;;;;;-0.02;77.52;101299.56;5062837;28;20580;-76
2023/12/10 09:53:31;;;;;;;19.35;7.10;;;;;;;-0.02;77.08;101296.97;5060433;28;20560;-76
2023/12/10 09:55:58;;;;;;;20.90;7.03;;;;;;;-0.01;77.48;101294.44;5060099;28;20134;-76
2023/12/10 09:58:25;;;;;;;22.33;7.70;;;;;;;-0.01;77.12;101297.00;5059989;28;20045;-75
2023/12/10 10:00:52;;;;;;;24.58;9.15;;;;;;;-0.01;77.20;101299.59;5058067;28;20037;-73
2023/12/10 10:03:20;;;;;;;21.27;8.65;;;;;;;0.01;77.07;101297.06;5062529;28;20173;-73
2023/12/10 10:05:47;;;;;;;18.88;7.80;;;;;;;0.01;77.43;101305.66;5061786;28;20143;-73
2023/12/10 10:08:15;;;;;;;25.25;9.65;;;;;;;0.02;77.37;101299.66;5060505;28;20099;-73
2023/12/10 10:10:42;;;;;;;23.70;9.43;;;;;;;0.01;77.60;101300.50;5059316;28;20072;-71
2023/12/10 10:13:09;;;;;;;23.08;9.02;;;;;;;0.02;77.30;101303.94;5063729;28;20457;-71
2023/12/10 10:15:37;;;;;;;25.70;9.60;;;;;;;0.03;77.67;101298.84;5062946;28;20113;-71
2023/12/10 10:18:06;;;;;;;21.55;8.93;;;;;;;0.04;77.78;101298.03;5061550;28;20041;-71
2023/12/10 10:20:33;;;;;;;23.90;9.80;;;;;;;0.05;77.30;101307.50;5059284;28;20040;-71
2023/12/10 10:23:01;;;;;;;24.95;8.50;;;;;;;0.07;77.64;101302.38;5062734;28;20041;-71
2023/12/10 10:25:29;;;;;;;20.73;7.65;;;;;;;0.09;77.04;101298.16;5060289;28;20531;-71
2023/12/10 10:27:56;;;;;;;21.17;8.40;;;;;;;0.10;77.67;101303.34;5062564;28;20102;-71
2023/12/10 10:30:23;;;;;;;25.50;8.75;;;;;;;0.12;77.10;101304.25;5060165;28;20110;-71
2023/12/10 10:32:50;;;;;;;21.15;8.30;;;;;;;0.14;77.25;101304.31;5062543;28;20048;-71
2023/12/10 10:35:17;;;;;;;27.65;9.75;;;;;;;0.16;77.84;101304.34;5062902;28;20088;-71
2023/12/10 10:37:44;;;;;;;26.10;10.27;;;;;;;0.18;77.84;101294.97;5062112;28;20044;-71
2023/12/10 10:40:12;;;;;;;20.15;9.05;;;;;;;0.20;77.65;101298.47;5060589;28;20529;-71
2023/12/10 10:42:40;;;;;;;19.67;9.55;;;;;;;0.21;77.51;101295.94;5064118;28;20044;-71
2023/12/10 10:45:08;;;;;;;21.80;10.38;;;;;;;0.22;77.01;101296.78;5059373;28;20079;-71
2023/12/10 10:47:37;;;;;;;20.85;8.60;;;;;;;0.19;77.35;101292.44;5061560;28;20523;-71
2023/12/10 10:50:07;;;;;;;19.52;8.45;;;;;;;0.23;77.14;101301.13;5063666;28;20072;-72
2023/12/10 10:52:35;;;;;;;18.60;8.35;;;;;;;0.21;77.20;101300.22;5058808;28;20051;-71
2023/12/10 10:55:04;;;;;;;17.15;7.68;;;;;;;0.22;77.03;101296.78;5061924;28;20141;-71
2023/12/10 10:57:31;;;;;;;17.58;7.95;;;;;;;0.20;77.12;101295.91;5061966;28;20052;-71
2023/12/10 11:00:00;;;;;;;21.33;9.30;;;;;;;0.21;76.97;101289.91;5064251;28;20463;-72
2023/12/10 11:02:27;;;;;;;21.80;9.52;;;;;;;0.22;76.85;101291.66;5059033;28;20449;-71
2023/12/10 11:04:54;;;;;;;17.02;7.65;;;;;;;0.19;76.55;101283.84;5058659;28;20114;-71
2023/12/10 11:07:24;;;;;;;21.15;8.45;;;;;;;0.20;77.09;101294.19;5062714;28;20049;-71
2023/12/10 11:09:56;;;;;;;22.23;8.75;;;;;;;0.19;76.63;101294.13;5058666;28;20047;-76
2023/12/10 11:12:45;;;;;;;18.58;8.90;;;;;;;0.20;76.38;101293.31;5060808;28;20044;-76
2023/12/10 11:15:29;;;;;;;23.48;8.20;;;;;;;0.19;76.49;101289.84;5062391;28;20056;-76
2023/12/10 11:17:59;;;;;;;20.48;8.40;;;;;;;0.19;76.70;101291.56;5054829;28;20487;-75